< < Back
Terminal Aerodrome Forecast


Current Version              Previous Versions:   1  2  3  4  5  6  7  8  9  

Terminal Aerodrome Forecast

970
FTAK31 PAJN 181100
TAFAGS
TAF
PAGS 181137Z 1812/1912 14010KT P6SM -SHRA OVC030
     FM182200 14008KT P6SM VCSH BKN035 OVC050
     FM190200 VRB04KT P6SM BKN050 BKN100
     FM190600 34005KT P6SM SCT120
      AMD LTD TO CLD VIS AND WIND=

Latest METAR

516
SAUS70 KWBC 181300 RRC
MTRAGS
METAR KAGS 181253Z 04005KT 10SM CLR 12/07 A3031 RMK AO2 SLP262
T01220072


USA.gov is the U.S. government's official web portal to all federal, state and local government web resources and services.